KLM6E SAEZ-EHAM
Flight info
| Callsign | KLM6E |
|---|---|
| Flight time | N/A |
| Altitude | 31000 |
| Route | DORVO1A DORVO UN857 OGRUN DCT NIGBI UZ121 PENSO/N0496F330 UZ5 SEKPO DCT KADAG UZ2 SLI DCT MAVKO/N0493F350 DCT GOGSO DCT GARPO/M083F350 DCT TEGTO/M083F370 DCT SORAD DCT 35N022W 40N019W/M083F390 DCT GONAN DCT TAMEL DCT EVBAK DCT GAPLI/N0477F390 DCT GAJIT DCT ENHAQ DCT REDFA |
| Aircraft | B772/H-SDE2E3FGHIJ5LORVWXY/LB1D1 |
Departure
| Time | 2026-05-06 04:16 |
|---|---|
| Airport | Ezeiza International Airport - Ministro Pistarini (SAEZ) |
Arrival
| Time | N/A |
|---|---|
| Airport | Amsterdam Airport Schiphol (EHAM) |
| Time | Latitude | Longitude | Altitude | Speed | Heading |
|---|---|---|---|---|---|
| 2026-05-06 03:29 | -34.81248 | -58.53739 | 79 ft | 0 kts | 238° |
| 2026-05-06 04:05 | -34.81239 | -58.53721 | 85 ft | 4 kts | 238° |
| 2026-05-06 04:06 | -34.81224 | -58.53693 | 85 ft | 4 kts | 238° |
| 2026-05-06 04:06 | -34.81210 | -58.53666 | 85 ft | 4 kts | 238° |
| 2026-05-06 04:06 | -34.81198 | -58.53642 | 90 ft | 2 kts | 238° |
| 2026-05-06 04:06 | -34.81184 | -58.53616 | 78 ft | 4 kts | 234° |
| 2026-05-06 04:07 | -34.81167 | -58.53590 | 79 ft | 4 kts | 228° |
| 2026-05-06 04:07 | -34.81148 | -58.53568 | 85 ft | 4 kts | 217° |
| 2026-05-06 04:07 | -34.81126 | -58.53552 | 85 ft | 4 kts | 195° |
| 2026-05-06 04:07 | -34.81105 | -58.53550 | 80 ft | 2 kts | 163° |
| 2026-05-06 04:08 | -34.81080 | -58.53559 | 83 ft | 3 kts | 163° |
| 2026-05-06 04:08 | -34.81076 | -58.53560 | 83 ft | 0 kts | 163° |
| 2026-05-06 04:10 | -34.81083 | -58.53558 | 83 ft | 7 kts | 164° |
| 2026-05-06 04:10 | -34.81197 | -58.53586 | 81 ft | 20 kts | 191° |
| 2026-05-06 04:11 | -34.81337 | -58.53588 | 84 ft | 20 kts | 186° |
| 2026-05-06 04:11 | -34.81473 | -58.53631 | 82 ft | 20 kts | 201° |
| 2026-05-06 04:11 | -34.81591 | -58.53723 | 83 ft | 20 kts | 222° |
| 2026-05-06 04:11 | -34.81692 | -58.53842 | 85 ft | 20 kts | 228° |
| 2026-05-06 04:12 | -34.81767 | -58.53986 | 82 ft | 20 kts | 239° |
| 2026-05-06 04:12 | -34.81787 | -58.54152 | 83 ft | 20 kts | 278° |
| 2026-05-06 04:12 | -34.81769 | -58.54321 | 83 ft | 20 kts | 278° |
| 2026-05-06 04:12 | -34.81752 | -58.54491 | 83 ft | 20 kts | 270° |
| 2026-05-06 04:13 | -34.81776 | -58.54659 | 83 ft | 20 kts | 259° |
| 2026-05-06 04:13 | -34.81767 | -58.54828 | 83 ft | 20 kts | 281° |
| 2026-05-06 04:13 | -34.81737 | -58.54995 | 80 ft | 20 kts | 283° |
| 2026-05-06 04:13 | -34.81706 | -58.55162 | 84 ft | 20 kts | 283° |
| 2026-05-06 04:14 | -34.81724 | -58.55317 | 83 ft | 9 kts | 220° |
| 2026-05-06 04:14 | -34.81742 | -58.55330 | 84 ft | 0 kts | 205° |
| 2026-05-06 04:14 | -34.81758 | -58.55337 | 83 ft | 11 kts | 196° |
| 2026-05-06 04:15 | -34.81855 | -58.55301 | 86 ft | 15 kts | 146° |
| 2026-05-06 04:15 | -34.81925 | -58.55205 | 88 ft | 15 kts | 117° |
| 2026-05-06 04:15 | -34.81942 | -58.55136 | 86 ft | 0 kts | 102° |
| 2026-05-06 04:15 | -34.81943 | -58.55132 | 86 ft | 6 kts | 102° |
| 2026-05-06 04:16 | -34.81995 | -58.54842 | 88 ft | 73 kts | 102° |
| 2026-05-06 04:16 | -34.82158 | -58.53929 | 87 ft | 145 kts | 102° |
| 2026-05-06 04:16 | -34.82407 | -58.52483 | 222 ft | 192 kts | 101° |
| 2026-05-06 04:16 | -34.82714 | -58.50943 | 1136 ft | 190 kts | 111° |
| 2026-05-06 04:17 | -34.83542 | -58.49570 | 1460 ft | 213 kts | 130° |
| 2026-05-06 04:17 | -34.84558 | -58.48156 | 1691 ft | 229 kts | 127° |
| 2026-05-06 04:17 | -34.85598 | -58.46634 | 2118 ft | 237 kts | 129° |
| 2026-05-06 04:17 | -34.86592 | -58.44993 | 2440 ft | 248 kts | 118° |
| 2026-05-06 04:18 | -34.87452 | -58.43107 | 2794 ft | 260 kts | 117° |
| 2026-05-06 04:18 | -34.88338 | -58.41145 | 3288 ft | 268 kts | 118° |
| 2026-05-06 04:18 | -34.89262 | -58.39147 | 3852 ft | 273 kts | 119° |
| 2026-05-06 04:18 | -34.90210 | -58.37126 | 4462 ft | 276 kts | 120° |
| 2026-05-06 04:19 | -34.90993 | -58.35008 | 4937 ft | 279 kts | 103° |
| 2026-05-06 04:19 | -34.91343 | -58.32659 | 5507 ft | 281 kts | 98° |
| 2026-05-06 04:19 | -34.91662 | -58.30307 | 6164 ft | 282 kts | 99° |
| 2026-05-06 04:19 | -34.91991 | -58.27945 | 6743 ft | 284 kts | 99° |
| 2026-05-06 04:20 | -34.92330 | -58.25564 | 7256 ft | 287 kts | 99° |
| 2026-05-06 04:20 | -34.92679 | -58.23148 | 7790 ft | 291 kts | 100° |
| 2026-05-06 04:20 | -34.93035 | -58.20709 | 8322 ft | 294 kts | 100° |
| 2026-05-06 04:20 | -34.93399 | -58.18236 | 8847 ft | 298 kts | 101° |
| 2026-05-06 04:21 | -34.93768 | -58.15736 | 9392 ft | 301 kts | 101° |
| 2026-05-06 04:21 | -34.94142 | -58.13206 | 9938 ft | 304 kts | 101° |
| 2026-05-06 04:21 | -34.94522 | -58.10640 | 10295 ft | 314 kts | 101° |
| 2026-05-06 04:21 | -34.94922 | -58.07945 | 10418 ft | 332 kts | 101° |
| 2026-05-06 04:22 | -34.95342 | -58.05105 | 10554 ft | 350 kts | 101° |
| 2026-05-06 04:22 | -34.95784 | -58.02103 | 10692 ft | 368 kts | 101° |
| 2026-05-06 04:22 | -34.96247 | -57.98959 | 10862 ft | 385 kts | 101° |
| 2026-05-06 04:23 | -34.97094 | -57.92361 | 11560 ft | 401 kts | 90° |
| 2026-05-06 04:23 | -34.96570 | -57.89004 | 11951 ft | 408 kts | 67° |
| 2026-05-06 04:23 | -34.95175 | -57.86052 | 12519 ft | 406 kts | 50° |
| 2026-05-06 04:23 | -34.93370 | -57.83391 | 12959 ft | 411 kts | 48° |
| 2026-05-06 04:24 | -34.91502 | -57.80716 | 13467 ft | 416 kts | 47° |
| 2026-05-06 04:24 | -34.89620 | -57.78021 | 14041 ft | 419 kts | 47° |
| 2026-05-06 04:24 | -34.87736 | -57.75304 | 14532 ft | 422 kts | 47° |
| 2026-05-06 04:24 | -34.85844 | -57.72555 | 15016 ft | 426 kts | 48° |
| 2026-05-06 04:25 | -34.83938 | -57.69770 | 15481 ft | 429 kts | 48° |
| 2026-05-06 04:25 | -34.82026 | -57.66968 | 15963 ft | 433 kts | 48° |
| 2026-05-06 04:25 | -34.80096 | -57.64138 | 16440 ft | 436 kts | 48° |
| 2026-05-06 04:25 | -34.78150 | -57.61285 | 16891 ft | 439 kts | 47° |
| 2026-05-06 04:26 | -34.76192 | -57.58417 | 17335 ft | 443 kts | 47° |
| 2026-05-06 04:26 | -34.74215 | -57.55524 | 17776 ft | 446 kts | 47° |
| 2026-05-06 04:26 | -34.72224 | -57.52616 | 18212 ft | 449 kts | 47° |
| 2026-05-06 04:26 | -34.70216 | -57.49686 | 18586 ft | 452 kts | 47° |
| 2026-05-06 04:27 | -34.68190 | -57.46741 | 18939 ft | 455 kts | 47° |
| 2026-05-06 04:27 | -34.66156 | -57.43788 | 19318 ft | 457 kts | 47° |
| 2026-05-06 04:27 | -34.64108 | -57.40817 | 19678 ft | 460 kts | 47° |
| 2026-05-06 04:27 | -34.62045 | -57.37824 | 20045 ft | 463 kts | 47° |
| 2026-05-06 04:28 | -34.59973 | -57.34821 | 20389 ft | 466 kts | 47° |
| 2026-05-06 04:28 | -34.57885 | -57.31796 | 20741 ft | 468 kts | 46° |
| 2026-05-06 04:28 | -34.55781 | -57.28750 | 21085 ft | 471 kts | 46° |
| 2026-05-06 04:28 | -34.53670 | -57.25696 | 21420 ft | 474 kts | 46° |
| 2026-05-06 04:29 | -34.51548 | -57.22628 | 21756 ft | 476 kts | 46° |
| 2026-05-06 04:29 | -34.49413 | -57.19546 | 22096 ft | 478 kts | 46° |
| 2026-05-06 04:29 | -34.47266 | -57.16448 | 22413 ft | 481 kts | 46° |
| 2026-05-06 04:29 | -34.45107 | -57.13336 | 22741 ft | 484 kts | 46° |
| 2026-05-06 04:30 | -34.42936 | -57.10209 | 23060 ft | 486 kts | 46° |
| 2026-05-06 04:30 | -34.40749 | -57.07061 | 23400 ft | 489 kts | 46° |
| 2026-05-06 04:30 | -34.38552 | -57.03902 | 23689 ft | 491 kts | 46° |
| 2026-05-06 04:30 | -34.36348 | -57.00736 | 23948 ft | 494 kts | 46° |
| 2026-05-06 04:31 | -34.34134 | -56.97557 | 24230 ft | 495 kts | 46° |
| 2026-05-06 04:31 | -34.31902 | -56.94355 | 24511 ft | 497 kts | 46° |
| 2026-05-06 04:31 | -34.29671 | -56.91157 | 24779 ft | 499 kts | 46° |
| 2026-05-06 04:31 | -34.27425 | -56.87941 | 25032 ft | 502 kts | 46° |
| 2026-05-06 04:32 | -34.25167 | -56.84714 | 25297 ft | 504 kts | 46° |
| 2026-05-06 04:32 | -34.22896 | -56.81476 | 25558 ft | 506 kts | 46° |
| 2026-05-06 04:32 | -34.20613 | -56.78225 | 25833 ft | 507 kts | 46° |
| 2026-05-06 04:32 | -34.18326 | -56.74971 | 26091 ft | 509 kts | 46° |
| 2026-05-06 04:33 | -34.16027 | -56.71703 | 26346 ft | 512 kts | 45° |
| 2026-05-06 04:33 | -34.13718 | -56.68422 | 26604 ft | 514 kts | 46° |
| 2026-05-06 04:33 | -34.11432 | -56.65175 | 26843 ft | 515 kts | 46° |
| 2026-05-06 04:33 | -34.09075 | -56.61831 | 27081 ft | 517 kts | 46° |
| 2026-05-06 04:34 | -34.06735 | -56.58513 | 27321 ft | 520 kts | 45° |
| 2026-05-06 04:34 | -34.04416 | -56.55228 | 27563 ft | 521 kts | 45° |
| 2026-05-06 04:34 | -34.02062 | -56.51898 | 27790 ft | 523 kts | 45° |
| 2026-05-06 04:34 | -33.99691 | -56.48546 | 28034 ft | 525 kts | 45° |
| 2026-05-06 04:35 | -33.97316 | -56.45191 | 28257 ft | 527 kts | 45° |
| 2026-05-06 04:35 | -33.94931 | -56.41824 | 28473 ft | 529 kts | 45° |
| 2026-05-06 04:35 | -33.92540 | -56.38452 | 28671 ft | 531 kts | 46° |
| 2026-05-06 04:35 | -33.90133 | -56.35061 | 28851 ft | 533 kts | 45° |
| 2026-05-06 04:36 | -33.87716 | -56.31664 | 29044 ft | 535 kts | 45° |
| 2026-05-06 04:36 | -33.85286 | -56.28288 | 29258 ft | 533 kts | 45° |
| 2026-05-06 04:36 | -33.82850 | -56.24927 | 29547 ft | 533 kts | 45° |
| 2026-05-06 04:36 | -33.80410 | -56.21561 | 29744 ft | 534 kts | 45° |
| 2026-05-06 04:37 | -33.77967 | -56.18181 | 29931 ft | 536 kts | 45° |
| 2026-05-06 04:37 | -33.75533 | -56.14788 | 30151 ft | 536 kts | 45° |
| 2026-05-06 04:37 | -33.73109 | -56.11392 | 30360 ft | 536 kts | 45° |
| 2026-05-06 04:37 | -33.70683 | -56.07990 | 30578 ft | 536 kts | 45° |
| 2026-05-06 04:38 | -33.68257 | -56.04591 | 30771 ft | 536 kts | 45° |
| 2026-05-06 04:38 | -33.65828 | -56.01193 | 30925 ft | 537 kts | 45° |
| 2026-05-06 04:38 | -33.63385 | -55.97784 | 30970 ft | 539 kts | 45° |
| 2026-05-06 04:39 | -33.58507 | -55.90989 | 31019 ft | 537 kts | 45° |
| 2026-05-06 04:39 | -33.53635 | -55.84218 | 31025 ft | 535 kts | 45° |
| 2026-05-06 04:40 | -33.48771 | -55.77472 | 31038 ft | 534 kts | 45° |
| 2026-05-06 04:40 | -33.43906 | -55.70737 | 31035 ft | 534 kts | 45° |
| 2026-05-06 04:41 | -33.39048 | -55.64024 | 31037 ft | 533 kts | 45° |
| 2026-05-06 04:41 | -33.34219 | -55.57364 | 31037 ft | 533 kts | 45° |
| 2026-05-06 04:42 | -33.29353 | -55.50664 | 31041 ft | 533 kts | 45° |
| 2026-05-06 04:42 | -33.24502 | -55.43997 | 31035 ft | 533 kts | 45° |
| 2026-05-06 04:43 | -33.19616 | -55.37295 | 31040 ft | 534 kts | 45° |
| 2026-05-06 04:43 | -33.15532 | -55.31703 | 31042 ft | 534 kts | 45° |
| 2026-05-06 04:44 | -33.10638 | -55.25013 | 31038 ft | 535 kts | 45° |
| 2026-05-06 04:44 | -33.05740 | -55.18329 | 31046 ft | 535 kts | 45° |
| 2026-05-06 04:45 | -33.00835 | -55.11649 | 31040 ft | 536 kts | 45° |
| 2026-05-06 04:45 | -32.95922 | -55.04969 | 31042 ft | 536 kts | 45° |
| 2026-05-06 04:46 | -32.91001 | -54.98289 | 31045 ft | 537 kts | 46° |
| 2026-05-06 04:46 | -32.86071 | -54.91612 | 31041 ft | 537 kts | 46° |
| 2026-05-06 04:47 | -32.81169 | -54.84984 | 31043 ft | 537 kts | 46° |
| 2026-05-06 04:47 | -32.76196 | -54.78272 | 31042 ft | 538 kts | 46° |
| 2026-05-06 04:48 | -32.71279 | -54.71647 | 31039 ft | 538 kts | 46° |
| 2026-05-06 04:48 | -32.66324 | -54.64985 | 31037 ft | 538 kts | 46° |
| 2026-05-06 04:49 | -32.61356 | -54.58315 | 31036 ft | 539 kts | 46° |
| 2026-05-06 04:49 | -32.56387 | -54.51657 | 31045 ft | 539 kts | 46° |
| 2026-05-06 04:50 | -32.51402 | -54.44990 | 31038 ft | 540 kts | 46° |
| 2026-05-06 04:50 | -32.46417 | -54.38334 | 31046 ft | 540 kts | 46° |
| 2026-05-06 04:51 | -32.41428 | -54.31685 | 31050 ft | 540 kts | 46° |
| 2026-05-06 04:51 | -32.36433 | -54.25036 | 31050 ft | 541 kts | 46° |
| 2026-05-06 04:52 | -32.31444 | -54.18375 | 31051 ft | 541 kts | 47° |
| 2026-05-06 04:52 | -32.26495 | -54.11666 | 31053 ft | 542 kts | 47° |
| 2026-05-06 04:53 | -32.21540 | -54.04949 | 31046 ft | 542 kts | 47° |
| 2026-05-06 04:53 | -32.16565 | -53.98239 | 31041 ft | 543 kts | 47° |
| 2026-05-06 04:54 | -32.11581 | -53.91531 | 31041 ft | 544 kts | 47° |
| 2026-05-06 04:54 | -32.06402 | -53.85028 | 31031 ft | 543 kts | 40° |
| 2026-05-06 04:55 | -32.00445 | -53.79630 | 31038 ft | 539 kts | 30° |
| 2026-05-06 04:55 | -31.94145 | -53.74820 | 31045 ft | 540 kts | 30° |
| 2026-05-06 04:56 | -31.87843 | -53.69986 | 31045 ft | 541 kts | 30° |
| 2026-05-06 04:56 | -31.81547 | -53.65108 | 31040 ft | 543 kts | 30° |
| 2026-05-06 04:57 | -31.75244 | -53.60207 | 31039 ft | 544 kts | 30° |
| 2026-05-06 04:57 | -31.68929 | -53.55304 | 31044 ft | 544 kts | 30° |
| 2026-05-06 04:58 | -31.62616 | -53.50416 | 31044 ft | 544 kts | 30° |
| 2026-05-06 04:58 | -31.56305 | -53.45539 | 31047 ft | 543 kts | 30° |
| 2026-05-06 04:59 | -31.49998 | -53.40674 | 31045 ft | 543 kts | 30° |
| 2026-05-06 04:59 | -31.43687 | -53.35814 | 31049 ft | 542 kts | 30° |
| 2026-05-06 05:00 | -31.37381 | -53.30965 | 31048 ft | 542 kts | 30° |
| 2026-05-06 05:00 | -31.31084 | -53.26132 | 31037 ft | 541 kts | 30° |
| 2026-05-06 05:01 | -31.24798 | -53.21314 | 31042 ft | 541 kts | 30° |
| 2026-05-06 05:01 | -31.18504 | -53.16496 | 31050 ft | 540 kts | 30° |
| 2026-05-06 05:02 | -31.12223 | -53.11699 | 31047 ft | 540 kts | 30° |
| 2026-05-06 05:02 | -31.05940 | -53.06907 | 31048 ft | 539 kts | 30° |
| 2026-05-06 05:03 | -30.99650 | -53.02119 | 31053 ft | 539 kts | 29° |
| 2026-05-06 05:03 | -30.93359 | -52.97336 | 31049 ft | 540 kts | 29° |
| 2026-05-06 05:04 | -30.87060 | -52.92554 | 31051 ft | 541 kts | 29° |
| 2026-05-06 05:04 | -30.80740 | -52.87765 | 31047 ft | 542 kts | 29° |
| 2026-05-06 05:05 | -30.74454 | -52.83008 | 31058 ft | 544 kts | 29° |
| 2026-05-06 05:05 | -30.68100 | -52.78209 | 31058 ft | 545 kts | 29° |
| 2026-05-06 05:06 | -30.61735 | -52.73408 | 31055 ft | 546 kts | 29° |
| 2026-05-06 05:06 | -30.55357 | -52.68605 | 31058 ft | 547 kts | 29° |
| 2026-05-06 05:07 | -30.48975 | -52.63807 | 31058 ft | 547 kts | 29° |
| 2026-05-06 05:07 | -30.42582 | -52.59007 | 31048 ft | 548 kts | 29° |
| 2026-05-06 05:08 | -30.36179 | -52.54208 | 31055 ft | 548 kts | 29° |
| 2026-05-06 05:08 | -30.29775 | -52.49417 | 31051 ft | 548 kts | 29° |
| 2026-05-06 05:09 | -30.23360 | -52.44624 | 31056 ft | 549 kts | 29° |
| 2026-05-06 05:09 | -30.16939 | -52.39834 | 31044 ft | 550 kts | 28° |
| 2026-05-06 05:10 | -30.10500 | -52.35040 | 31055 ft | 551 kts | 28° |
| 2026-05-06 05:10 | -30.04060 | -52.30251 | 31055 ft | 551 kts | 28° |
| 2026-05-06 05:11 | -29.97604 | -52.25457 | 31054 ft | 552 kts | 28° |
| 2026-05-06 05:11 | -29.91142 | -52.20667 | 31051 ft | 552 kts | 28° |
| 2026-05-06 05:12 | -29.84679 | -52.15884 | 31056 ft | 552 kts | 28° |
| 2026-05-06 05:12 | -29.78211 | -52.11104 | 31058 ft | 552 kts | 28° |
| 2026-05-06 05:13 | -29.71742 | -52.06331 | 31060 ft | 552 kts | 28° |
| 2026-05-06 05:13 | -29.65283 | -52.01573 | 31059 ft | 552 kts | 28° |
| 2026-05-06 05:14 | -29.58814 | -51.96815 | 31066 ft | 551 kts | 29° |
| 2026-05-06 05:14 | -29.52351 | -51.92068 | 31070 ft | 551 kts | 29° |
| 2026-05-06 05:15 | -29.45896 | -51.87335 | 31081 ft | 551 kts | 29° |
| 2026-05-06 05:15 | -29.39418 | -51.82592 | 31084 ft | 551 kts | 29° |
| 2026-05-06 05:16 | -29.32949 | -51.77862 | 31085 ft | 551 kts | 29° |
| 2026-05-06 05:16 | -29.26504 | -51.73147 | 31119 ft | 550 kts | 28° |
| 2026-05-06 05:17 | -29.20096 | -51.68307 | 31101 ft | 551 kts | 30° |
| 2026-05-06 05:17 | -29.13714 | -51.63440 | 31109 ft | 551 kts | 30° |
| 2026-05-06 05:18 | -29.07314 | -51.58607 | 31132 ft | 551 kts | 30° |
| 2026-05-06 05:18 | -29.00938 | -51.53820 | 31138 ft | 552 kts | 30° |
| 2026-05-06 05:19 | -28.94504 | -51.48987 | 31144 ft | 553 kts | 30° |
| 2026-05-06 05:19 | -28.88076 | -51.44164 | 31144 ft | 553 kts | 30° |
| 2026-05-06 05:20 | -28.81649 | -51.39353 | 31147 ft | 553 kts | 30° |
| 2026-05-06 05:20 | -28.75206 | -51.34536 | 31156 ft | 553 kts | 30° |
| 2026-05-06 05:21 | -28.68782 | -51.29739 | 31172 ft | 552 kts | 30° |
| 2026-05-06 05:21 | -28.62350 | -51.24945 | 31178 ft | 552 kts | 30° |
| 2026-05-06 05:22 | -28.55920 | -51.20158 | 31179 ft | 552 kts | 30° |
| 2026-05-06 05:22 | -28.49493 | -51.15380 | 31190 ft | 551 kts | 30° |
| 2026-05-06 05:23 | -28.44158 | -51.11420 | 31197 ft | 551 kts | 30° |
| 2026-05-06 05:23 | -28.34530 | -51.04284 | 31199 ft | 551 kts | 30° |
| 2026-05-06 05:24 | -28.28105 | -50.99532 | 31206 ft | 551 kts | 30° |
| 2026-05-06 05:24 | -28.21684 | -50.94789 | 31206 ft | 551 kts | 30° |
| 2026-05-06 05:25 | -28.15264 | -50.90052 | 31212 ft | 551 kts | 30° |
| 2026-05-06 05:25 | -28.08829 | -50.85333 | 31219 ft | 550 kts | 28° |
| 2026-05-06 05:26 | -28.01978 | -50.81513 | 31513 ft | 546 kts | 17° |
| 2026-05-06 05:26 | -27.98401 | -50.80109 | 31701 ft | 542 kts | 11° |
| 2026-05-06 05:26 | -27.94762 | -50.78988 | 31887 ft | 542 kts | 9° |
| 2026-05-06 05:27 | -27.91119 | -50.77895 | 32097 ft | 541 kts | 9° |
| 2026-05-06 05:27 | -27.87478 | -50.76797 | 32330 ft | 541 kts | 9° |
| 2026-05-06 05:27 | -27.83892 | -50.75701 | 32575 ft | 540 kts | 10° |
| 2026-05-06 05:27 | -27.80273 | -50.74579 | 32832 ft | 539 kts | 10° |
| 2026-05-06 05:28 | -27.76659 | -50.73450 | 33057 ft | 539 kts | 10° |
| 2026-05-06 05:28 | -27.73042 | -50.72315 | 33150 ft | 541 kts | 10° |
| 2026-05-06 05:28 | -27.65784 | -50.70040 | 33210 ft | 541 kts | 10° |
| 2026-05-06 05:29 | -27.58550 | -50.67780 | 33207 ft | 538 kts | 10° |
| 2026-05-06 05:29 | -27.51359 | -50.65537 | 33205 ft | 535 kts | 10° |
| 2026-05-06 05:30 | -27.44192 | -50.63307 | 33212 ft | 533 kts | 10° |
| 2026-05-06 05:30 | -27.37042 | -50.61084 | 33224 ft | 533 kts | 10° |
| 2026-05-06 05:31 | -27.29892 | -50.58866 | 33220 ft | 533 kts | 10° |
| 2026-05-06 05:31 | -27.22732 | -50.56645 | 33230 ft | 534 kts | 10° |